createdAt,value
2022-08-31T00:00:54.124Z,101017.16
2022-08-31T00:03:43.176Z,101022.03
2022-08-31T00:06:10.636Z,101010.50
2022-08-31T00:08:38.025Z,101007.28
2022-08-31T00:11:09.671Z,101007.72
2022-08-31T00:13:37.656Z,101001.91
2022-08-31T00:16:06.679Z,101007.09
2022-08-31T00:18:34.183Z,101014.22
2022-08-31T00:21:03.373Z,100999.91
2022-08-31T00:23:30.872Z,100998.84
2022-08-31T00:25:58.623Z,101017.94
2022-08-31T00:28:26.090Z,101020.38
2022-08-31T00:30:53.503Z,101019.81
2022-08-31T00:33:22.233Z,101024.81
2022-08-31T00:35:49.645Z,101031.56
2022-08-31T00:38:17.077Z,101034.25
2022-08-31T00:40:46.243Z,101029.34
2022-08-31T00:43:14.476Z,101026.69
2022-08-31T00:45:41.895Z,101044.16
2022-08-31T00:48:09.308Z,101034.25
2022-08-31T00:50:38.094Z,101026.47
2022-08-31T00:53:05.473Z,101034.47
2022-08-31T00:55:36.238Z,101024.09
2022-08-31T00:58:07.440Z,101015.84
2022-08-31T01:00:36.141Z,101002.47
2022-08-31T01:03:06.196Z,100999.94
2022-08-31T01:05:35.293Z,101002.50
2022-08-31T01:08:05.740Z,101007.13
2022-08-31T01:10:35.859Z,101011.00
2022-08-31T01:13:04.978Z,101013.66
2022-08-31T01:15:34.236Z,101019.13
2022-08-31T01:18:05.631Z,101026.56
2022-08-31T01:20:43.178Z,101029.13
2022-08-31T01:23:21.157Z,101023.53
2022-08-31T01:25:50.859Z,101032.38
2022-08-31T01:28:18.857Z,101027.69
2022-08-31T01:30:59.884Z,101026.72
2022-08-31T01:33:28.145Z,101027.03
2022-08-31T01:35:56.675Z,101024.44
2022-08-31T01:38:26.155Z,101026.19
2022-08-31T01:40:55.942Z,101023.13
2022-08-31T01:43:24.184Z,101020.38
2022-08-31T01:45:52.751Z,101018.47
2022-08-31T01:48:20.790Z,101020.31
2022-08-31T01:50:48.401Z,101016.03
2022-08-31T01:53:18.136Z,101016.22
2022-08-31T01:55:47.541Z,101008.13
2022-08-31T01:58:15.291Z,101012.63
2022-08-31T02:00:44.135Z,101013.75
2022-08-31T02:03:12.203Z,101019.81
2022-08-31T02:05:41.492Z,101014.63
2022-08-31T02:08:10.987Z,101019.97
2022-08-31T02:10:39.352Z,101017.53
2022-08-31T02:13:08.453Z,101022.03
2022-08-31T02:15:36.185Z,101018.56
2022-08-31T02:18:03.765Z,101028.38
2022-08-31T02:20:31.534Z,101033.50
2022-08-31T02:23:03.344Z,101036.41
2022-08-31T02:25:31.345Z,101034.53
2022-08-31T02:27:58.980Z,101022.72
2022-08-31T02:30:28.483Z,101015.25
2022-08-31T02:32:57.431Z,101024.75
2022-08-31T02:35:25.271Z,101023.81
2022-08-31T02:37:52.948Z,101025.59
2022-08-31T02:40:20.673Z,101012.69
2022-08-31T02:42:53.515Z,101019.84
2022-08-31T02:45:22.451Z,101015.59
2022-08-31T02:47:51.587Z,101010.34
2022-08-31T02:50:19.434Z,101006.59
2022-08-31T02:52:47.913Z,101009.22
2022-08-31T02:55:16.428Z,101007.81
2022-08-31T02:57:45.291Z,101009.97
2022-08-31T03:00:13.769Z,101001.97
2022-08-31T03:02:41.534Z,100998.69
2022-08-31T03:05:11.613Z,100990.50
2022-08-31T03:07:40.529Z,100994.59
2022-08-31T03:10:11.480Z,100995.34
2022-08-31T03:12:39.568Z,101001.66
2022-08-31T03:15:09.757Z,101009.06
2022-08-31T03:17:37.483Z,101005.22
2022-08-31T03:20:07.100Z,101010.56
2022-08-31T03:22:36.838Z,100998.84
2022-08-31T03:25:04.997Z,101006.25
2022-08-31T03:27:33.150Z,101005.81
2022-08-31T03:30:00.835Z,101006.84
2022-08-31T03:32:28.607Z,101009.59
2022-08-31T03:34:56.779Z,101003.47
2022-08-31T03:37:24.585Z,100959.94
2022-08-31T03:39:53.631Z,101014.06
2022-08-31T03:42:21.735Z,101011.63
2022-08-31T03:44:49.637Z,101009.84
2022-08-31T03:47:17.917Z,101006.41
2022-08-31T03:49:46.045Z,101006.41
2022-08-31T03:52:13.820Z,101009.38
2022-08-31T03:54:41.601Z,101005.94
2022-08-31T03:57:11.028Z,101013.72
2022-08-31T03:59:39.861Z,101015.19
2022-08-31T04:02:07.977Z,101017.84
2022-08-31T04:04:37.343Z,101011.94
2022-08-31T04:07:05.000Z,101012.16
2022-08-31T04:09:32.699Z,101016.47
2022-08-31T04:12:00.609Z,101022.56
2022-08-31T04:14:29.721Z,100975.78
2022-08-31T04:16:57.316Z,101020.06
2022-08-31T04:19:25.184Z,101015.06
2022-08-31T04:21:52.789Z,101023.19
2022-08-31T04:24:20.412Z,101023.31
2022-08-31T04:26:48.387Z,101026.53
2022-08-31T04:29:15.984Z,101020.50
2022-08-31T04:31:45.003Z,101031.03
2022-08-31T04:34:12.665Z,101025.97
2022-08-31T04:36:40.539Z,101034.41
2022-08-31T04:39:09.256Z,101003.69
2022-08-31T04:41:38.925Z,101032.47
2022-08-31T04:44:06.812Z,101038.59
2022-08-31T04:46:37.675Z,101039.56
2022-08-31T04:49:09.329Z,101049.38
2022-08-31T04:51:39.345Z,101045.81
2022-08-31T04:54:09.567Z,101063.28
2022-08-31T04:56:41.168Z,101062.97
2022-08-31T04:59:10.707Z,101068.78
2022-08-31T05:01:43.231Z,101072.50
2022-08-31T05:04:14.285Z,101063.06
2022-08-31T05:06:45.348Z,101077.38
2022-08-31T05:09:16.516Z,101082.50
2022-08-31T05:11:46.520Z,101082.16
2022-08-31T05:14:14.302Z,101086.81
2022-08-31T05:16:43.251Z,101090.81
2022-08-31T05:19:12.504Z,101024.22
2022-08-31T05:21:42.308Z,101090.47
2022-08-31T05:24:12.265Z,101092.81
2022-08-31T05:26:44.321Z,101104.91
2022-08-31T05:29:15.082Z,101103.28
2022-08-31T05:31:46.251Z,101102.72
2022-08-31T05:34:18.842Z,101108.66
2022-08-31T05:36:50.734Z,101116.91
2022-08-31T05:39:18.468Z,101129.78
2022-08-31T05:41:47.504Z,101133.44
2022-08-31T05:44:16.424Z,101131.72
2022-08-31T05:46:45.030Z,101137.66
2022-08-31T05:49:24.206Z,101148.13
2022-08-31T05:51:57.144Z,101154.84
2022-08-31T05:54:24.750Z,101158.31
2022-08-31T05:56:52.662Z,101161.16
2022-08-31T05:59:20.459Z,101175.59
2022-08-31T06:01:48.192Z,101181.38
2022-08-31T06:04:15.863Z,101197.03
2022-08-31T06:06:45.379Z,101199.94
2022-08-31T06:09:12.985Z,101218.84
2022-08-31T06:11:42.418Z,101225.03
2022-08-31T06:14:12.047Z,101237.91
2022-08-31T06:16:40.783Z,101243.19
2022-08-31T06:19:08.548Z,101245.47
2022-08-31T06:21:40.682Z,101244.38
2022-08-31T06:24:21.257Z,101253.66
2022-08-31T06:26:57.996Z,101260.09
2022-08-31T06:29:28.097Z,101277.59
2022-08-31T06:31:55.897Z,101276.22
2022-08-31T06:34:24.637Z,101262.91
2022-08-31T06:36:52.487Z,101287.34
2022-08-31T06:39:21.989Z,101277.63
2022-08-31T06:41:52.525Z,101311.91
2022-08-31T06:44:22.639Z,101341.31
2022-08-31T06:46:51.753Z,101333.69
2022-08-31T06:49:20.550Z,101345.16
2022-08-31T06:51:48.678Z,101389.06
2022-08-31T06:54:29.478Z,101419.06
2022-08-31T06:57:02.853Z,101481.38
2022-08-31T06:59:31.236Z,101501.41
2022-08-31T07:02:01.563Z,101528.97
2022-08-31T07:04:33.463Z,101557.38
2022-08-31T07:07:01.161Z,101574.72
2022-08-31T07:09:29.098Z,101567.63
2022-08-31T07:11:56.899Z,101554.38
2022-08-31T07:14:28.356Z,101519.91
2022-08-31T07:16:57.792Z,101527.88
2022-08-31T07:19:26.521Z,101523.31
2022-08-31T07:21:57.076Z,101542.00
2022-08-31T07:24:27.952Z,101558.78
2022-08-31T07:26:58.214Z,101594.19
2022-08-31T07:29:30.418Z,101666.03
2022-08-31T07:31:59.582Z,101634.16
2022-08-31T07:34:29.583Z,101519.34
2022-08-31T07:37:17.348Z,101488.25
2022-08-31T07:40:07.179Z,101436.34
2022-08-31T07:42:37.891Z,101375.06
2022-08-31T07:45:12.105Z,101358.94
2022-08-31T07:47:45.326Z,101266.91
2022-08-31T07:50:14.829Z,101156.56
2022-08-31T07:52:47.733Z,101117.56
2022-08-31T07:55:17.819Z,101088.59
2022-08-31T07:57:46.227Z,101095.91
2022-08-31T08:00:21.412Z,101069.94
2022-08-31T08:02:53.089Z,101065.19
2022-08-31T08:05:27.406Z,101054.94
2022-08-31T08:07:57.413Z,101046.31
2022-08-31T08:10:26.178Z,101027.63
2022-08-31T08:12:58.216Z,100996.44
2022-08-31T08:15:28.769Z,100972.25
2022-08-31T08:17:56.612Z,100965.53
2022-08-31T08:20:37.189Z,100945.56
2022-08-31T08:23:11.551Z,100929.81
2022-08-31T08:25:43.285Z,100929.34
2022-08-31T08:28:38.047Z,100933.66
2022-08-31T08:31:07.550Z,100893.97
2022-08-31T08:33:36.839Z,100916.44
2022-08-31T08:36:08.732Z,100901.81
2022-08-31T08:38:40.219Z,100906.53
2022-08-31T08:41:12.872Z,100894.84
2022-08-31T08:43:43.767Z,100893.06
2022-08-31T08:46:33.976Z,100871.16
2022-08-31T08:49:13.501Z,100865.91
2022-08-31T08:51:41.117Z,100857.69
2022-08-31T08:54:12.893Z,100838.06
2022-08-31T08:56:47.640Z,100816.44
2022-08-31T08:59:19.273Z,100800.34
2022-08-31T09:01:52.730Z,100773.53
2022-08-31T09:04:30.882Z,100756.03
2022-08-31T09:07:17.749Z,100748.59
2022-08-31T09:09:53.544Z,100742.13
2022-08-31T09:12:32.951Z,100756.84
2022-08-31T09:15:18.898Z,100762.97
2022-08-31T09:18:00.170Z,100776.38
2022-08-31T09:20:28.532Z,100781.09
2022-08-31T09:23:00.820Z,100790.59
2022-08-31T09:25:32.943Z,100805.53
2022-08-31T09:28:03.249Z,100821.00
2022-08-31T09:30:39.462Z,100793.19
2022-08-31T09:33:18.525Z,100819.13
2022-08-31T09:35:47.859Z,100815.22
2022-08-31T09:38:29.247Z,100812.72
2022-08-31T09:40:57.303Z,100832.63
2022-08-31T09:43:35.051Z,100835.38
2022-08-31T09:46:07.725Z,100832.50
2022-08-31T09:48:43.360Z,100851.97
2022-08-31T09:51:13.688Z,100847.44
2022-08-31T09:54:00.281Z,100871.66
2022-08-31T09:56:29.699Z,100868.69
2022-08-31T09:59:01.750Z,100888.19
2022-08-31T10:01:38.654Z,100904.81
2022-08-31T10:04:17.387Z,100900.25
2022-08-31T10:06:52.305Z,100897.19
2022-08-31T10:09:28.551Z,100873.38
2022-08-31T10:12:01.945Z,100920.16
2022-08-31T10:14:36.362Z,100908.03
2022-08-31T10:17:11.970Z,100896.53
2022-08-31T10:19:56.456Z,100906.78
2022-08-31T10:22:30.348Z,100911.50
2022-08-31T10:25:12.703Z,100908.50
2022-08-31T10:27:47.566Z,100906.75
2022-08-31T10:30:27.248Z,100907.22
2022-08-31T10:33:01.803Z,100931.53
2022-08-31T10:35:37.895Z,100935.41
2022-08-31T10:38:21.219Z,100928.34
2022-08-31T10:40:52.536Z,100931.97
2022-08-31T10:43:23.912Z,100937.72
2022-08-31T10:45:53.525Z,100920.06
2022-08-31T10:48:27.046Z,100905.59
2022-08-31T10:51:13.180Z,100918.63
2022-08-31T10:54:03.184Z,100910.81
2022-08-31T10:56:39.857Z,100937.50
2022-08-31T10:59:19.134Z,100946.91
2022-08-31T11:01:57.016Z,100943.56
2022-08-31T11:05:01.814Z,100928.06
2022-08-31T11:07:46.799Z,100909.19
2022-08-31T11:10:27.214Z,100924.66
2022-08-31T11:12:59.270Z,100939.97
2022-08-31T11:15:57.246Z,100945.28
2022-08-31T11:18:52.438Z,100930.16
2022-08-31T11:21:39.712Z,100902.72
2022-08-31T11:24:36.991Z,100903.88
2022-08-31T11:27:11.968Z,100896.00
2022-08-31T11:29:46.639Z,100920.50
2022-08-31T11:32:21.490Z,100866.03
2022-08-31T11:34:53.584Z,100911.09
2022-08-31T11:37:52.512Z,100889.31
2022-08-31T11:41:12.436Z,100887.28
2022-08-31T11:43:52.053Z,100910.59
2022-08-31T11:46:45.751Z,100937.41
2022-08-31T11:49:37.962Z,100937.28
2022-08-31T11:52:12.630Z,100922.63
2022-08-31T11:55:21.007Z,100923.97
2022-08-31T11:58:21.157Z,100941.13
2022-08-31T12:01:06.042Z,100938.88
2022-08-31T12:03:43.627Z,100944.72
2022-08-31T12:06:33.695Z,100944.47
2022-08-31T12:09:21.239Z,100949.25
2022-08-31T12:11:54.109Z,100950.19
2022-08-31T12:14:33.452Z,100952.34
2022-08-31T12:17:13.439Z,100948.63
2022-08-31T12:20:12.761Z,100947.69
2022-08-31T12:23:30.436Z,100952.84
2022-08-31T12:26:13.003Z,100938.47
2022-08-31T12:28:58.897Z,100932.53
2022-08-31T12:31:28.619Z,100941.44
2022-08-31T12:34:04.604Z,100926.38
2022-08-31T12:36:36.086Z,100929.19
2022-08-31T12:39:10.389Z,100935.06
2022-08-31T12:41:42.008Z,100919.97
2022-08-31T12:44:14.315Z,100933.88
2022-08-31T12:46:58.864Z,100931.97
2022-08-31T12:49:48.673Z,100917.47
2022-08-31T12:52:28.633Z,100922.72
2022-08-31T12:55:24.003Z,100918.56
2022-08-31T12:58:05.255Z,100918.63
2022-08-31T13:00:37.472Z,100923.31
2022-08-31T13:03:20.961Z,100921.06
2022-08-31T13:06:05.947Z,100916.28
2022-08-31T13:08:38.335Z,100917.91
2022-08-31T13:11:33.136Z,100915.91
2022-08-31T13:14:18.225Z,100913.69
2022-08-31T13:16:50.100Z,100907.94
2022-08-31T13:19:25.844Z,100900.88
2022-08-31T13:21:59.283Z,100901.97
2022-08-31T13:24:32.650Z,100901.94
2022-08-31T13:27:05.923Z,100915.34
2022-08-31T13:29:41.090Z,100908.91
2022-08-31T13:32:09.460Z,100907.91
2022-08-31T13:34:42.035Z,100900.41
2022-08-31T13:37:23.103Z,100889.56
2022-08-31T13:39:51.519Z,100876.72
2022-08-31T13:42:33.424Z,100881.53
2022-08-31T13:45:07.441Z,100882.94
2022-08-31T13:47:37.949Z,100871.72
2022-08-31T13:50:28.651Z,100846.59
2022-08-31T13:53:25.392Z,100875.88
2022-08-31T13:55:49.512Z,100870.72
2022-08-31T13:58:27.289Z,100881.84
2022-08-31T14:01:18.834Z,100879.38
2022-08-31T14:03:57.504Z,100880.75
2022-08-31T14:06:27.262Z,100869.94
2022-08-31T14:09:03.349Z,100868.69
2022-08-31T14:11:33.675Z,100839.97
2022-08-31T14:14:08.458Z,100831.94
2022-08-31T14:16:38.896Z,100874.78
2022-08-31T14:19:12.004Z,100877.75
2022-08-31T14:21:42.305Z,100875.44
2022-08-31T14:24:12.493Z,100868.50
2022-08-31T14:26:42.578Z,100858.22
2022-08-31T14:29:13.121Z,100861.22
2022-08-31T14:31:45.244Z,100852.78
2022-08-31T14:34:33.680Z,100846.66
2022-08-31T14:37:06.228Z,100842.75
2022-08-31T14:39:38.183Z,100844.75
2022-08-31T14:42:08.360Z,100843.16
2022-08-31T14:44:39.807Z,100839.97
2022-08-31T14:47:09.606Z,100836.75
2022-08-31T14:49:39.050Z,100847.06
2022-08-31T14:52:08.069Z,100843.13
2022-08-31T14:54:38.119Z,100807.19
2022-08-31T14:57:11.579Z,100838.94
2022-08-31T14:59:43.061Z,100834.34
2022-08-31T15:02:13.383Z,100838.78
2022-08-31T15:04:45.853Z,100804.78
2022-08-31T15:07:14.395Z,100832.84
2022-08-31T15:09:47.704Z,100828.16
2022-08-31T15:12:20.363Z,100829.13
2022-08-31T15:14:48.086Z,100828.22
2022-08-31T15:17:19.755Z,100811.63
2022-08-31T15:19:50.337Z,100793.09
2022-08-31T15:22:18.222Z,100826.66
2022-08-31T15:24:47.649Z,100807.16
2022-08-31T15:27:16.597Z,100832.59
2022-08-31T15:29:46.697Z,100820.53
2022-08-31T15:32:18.743Z,100821.44
2022-08-31T15:34:53.447Z,100792.44
2022-08-31T15:37:21.471Z,100819.59
2022-08-31T15:39:51.376Z,100773.66
2022-08-31T15:42:20.781Z,100813.94
2022-08-31T15:44:55.690Z,100810.88
2022-08-31T15:47:42.439Z,100821.75
2022-08-31T15:50:13.387Z,100808.00
2022-08-31T15:52:43.995Z,100809.22
2022-08-31T15:55:21.824Z,100809.38
2022-08-31T15:57:50.409Z,100802.63
2022-08-31T16:00:19.930Z,100795.66
2022-08-31T16:02:48.002Z,100799.09
2022-08-31T16:05:16.481Z,100811.91
2022-08-31T16:07:45.303Z,100791.75
2022-08-31T16:10:19.216Z,100790.19
2022-08-31T16:12:51.684Z,100800.75
2022-08-31T16:15:23.378Z,100797.75
2022-08-31T16:17:57.244Z,100801.13
2022-08-31T16:20:27.538Z,100800.38
2022-08-31T16:22:55.880Z,100790.31
2022-08-31T16:25:25.340Z,100797.91
2022-08-31T16:27:59.889Z,100779.88
2022-08-31T16:30:28.979Z,100786.41
2022-08-31T16:32:56.762Z,100781.72
2022-08-31T16:35:24.518Z,100779.88
2022-08-31T16:37:52.684Z,100757.41
2022-08-31T16:40:22.640Z,100791.44
2022-08-31T16:42:50.562Z,100775.31
2022-08-31T16:45:20.062Z,100785.63
2022-08-31T16:47:47.874Z,100780.00
2022-08-31T16:50:15.953Z,100776.94
2022-08-31T16:52:45.071Z,100779.81
2022-08-31T16:55:17.256Z,100790.59
2022-08-31T16:57:45.613Z,100780.72
2022-08-31T17:00:14.079Z,100792.06
2022-08-31T17:02:43.318Z,100794.81
2022-08-31T17:05:11.134Z,100788.28
2022-08-31T17:07:42.836Z,100793.69
2022-08-31T17:10:11.342Z,100788.72
2022-08-31T17:12:42.096Z,100766.25
2022-08-31T17:15:12.274Z,100777.91
2022-08-31T17:17:40.058Z,100790.69
2022-08-31T17:20:13.252Z,100791.44
2022-08-31T17:22:41.123Z,100794.97
2022-08-31T17:25:09.637Z,100795.19
2022-08-31T17:27:37.375Z,100786.50
2022-08-31T17:30:07.974Z,100799.28
2022-08-31T17:32:44.934Z,100778.56
2022-08-31T17:35:18.673Z,100787.66
2022-08-31T17:37:47.969Z,100771.50
2022-08-31T17:40:16.876Z,100753.31
2022-08-31T17:42:44.834Z,100732.78
2022-08-31T17:45:13.145Z,100700.75
2022-08-31T17:47:41.464Z,100700.47
2022-08-31T17:50:10.216Z,100685.72
2022-08-31T17:52:39.365Z,100661.34
2022-08-31T17:55:07.930Z,100648.81
2022-08-31T17:57:35.704Z,100659.63
2022-08-31T18:00:04.640Z,100662.97
2022-08-31T18:02:34.808Z,100656.03
2022-08-31T18:05:03.732Z,100638.84
2022-08-31T18:07:39.020Z,100614.31
2022-08-31T18:10:07.491Z,100613.78
2022-08-31T18:12:41.234Z,100611.63
2022-08-31T18:15:10.138Z,100596.53
2022-08-31T18:17:38.185Z,100572.56
2022-08-31T18:20:06.707Z,100480.72
2022-08-31T18:22:34.782Z,100391.88
2022-08-31T18:25:05.153Z,100312.03
2022-08-31T18:27:33.341Z,100230.50
2022-08-31T18:30:01.506Z,100181.06
2022-08-31T18:32:36.298Z,100104.81
2022-08-31T18:35:06.006Z,100084.13
2022-08-31T18:37:34.963Z,100050.03
2022-08-31T18:40:22.455Z,100048.44
2022-08-31T18:43:09.930Z,100045.16
2022-08-31T18:45:39.773Z,100025.81
2022-08-31T18:48:24.209Z,100058.84
2022-08-31T18:50:52.599Z,100070.31
2022-08-31T18:53:29.232Z,100093.31
2022-08-31T18:56:05.722Z,100098.44
2022-08-31T18:58:33.712Z,100107.84
2022-08-31T19:01:01.607Z,100114.25
2022-08-31T19:03:30.360Z,100134.84
2022-08-31T19:05:58.923Z,100162.66
2022-08-31T19:08:27.634Z,100173.94
2022-08-31T19:10:58.117Z,100205.50
2022-08-31T19:13:28.818Z,100247.56
2022-08-31T19:16:01.583Z,100277.19
2022-08-31T19:18:31.503Z,100322.69
2022-08-31T19:20:59.852Z,100392.94
2022-08-31T19:23:28.250Z,100486.25
2022-08-31T19:25:56.089Z,100601.34
2022-08-31T19:28:24.001Z,100691.41
2022-08-31T19:30:53.155Z,100774.69
2022-08-31T19:33:24.854Z,100902.28
2022-08-31T19:36:04.642Z,101091.78
2022-08-31T19:38:32.757Z,101274.28
2022-08-31T19:41:01.291Z,101431.81
2022-08-31T19:43:54.791Z,101591.78
2022-08-31T19:46:25.615Z,101718.94
2022-08-31T19:48:53.748Z,101775.66
2022-08-31T19:51:24.495Z,101784.75
2022-08-31T19:53:52.405Z,101760.06
2022-08-31T19:56:22.222Z,101761.31
2022-08-31T19:58:57.262Z,101719.63
2022-08-31T20:01:32.912Z,101689.19
2022-08-31T20:04:02.279Z,101682.31
2022-08-31T20:06:31.649Z,101677.84
2022-08-31T20:09:05.462Z,65387.91
2022-08-31T20:12:19.562Z,65387.91
2022-08-31T20:15:12.515Z,65387.91
2022-08-31T20:18:13.385Z,65387.91
2022-08-31T20:21:42.132Z,65387.91
2022-08-31T20:25:09.209Z,65387.91
2022-08-31T20:28:38.693Z,65387.91
2022-08-31T20:32:04.296Z,65387.91
2022-08-31T20:35:33.558Z,65387.91
2022-08-31T20:39:01.267Z,65387.91
2022-08-31T20:42:26.590Z,65387.91
2022-08-31T20:45:53.025Z,65387.91
2022-08-31T20:49:26.871Z,65387.91
2022-08-31T20:52:56.978Z,65387.91
2022-08-31T20:56:26.174Z,65387.91
2022-08-31T20:59:52.806Z,65387.91
2022-08-31T21:03:19.340Z,65387.91
2022-08-31T21:06:46.016Z,65387.91
2022-08-31T21:10:13.439Z,65387.91
2022-08-31T21:13:39.561Z,65387.91
2022-08-31T21:17:06.195Z,65387.91
2022-08-31T21:20:35.150Z,65387.91
2022-08-31T21:24:01.596Z,65387.91
2022-08-31T21:27:29.485Z,65387.91
2022-08-31T21:30:52.739Z,65387.91
2022-08-31T21:34:19.645Z,65387.91
2022-08-31T21:37:46.444Z,65387.91
2022-08-31T21:41:13.909Z,65387.91
2022-08-31T21:44:39.194Z,65387.91
2022-08-31T21:48:05.443Z,65387.91
2022-08-31T21:51:32.366Z,65387.91
2022-08-31T21:54:56.433Z,65387.91
2022-08-31T21:58:19.260Z,65387.91
2022-08-31T22:01:48.041Z,65387.91
2022-08-31T22:05:12.329Z,65387.91
2022-08-31T22:08:28.883Z,65387.91
2022-08-31T22:11:58.169Z,65387.91
2022-08-31T22:15:28.083Z,65387.91
2022-08-31T22:19:01.741Z,65387.91
2022-08-31T22:22:30.063Z,65387.91
2022-08-31T22:25:56.299Z,65387.91
2022-08-31T22:29:24.229Z,65387.91
2022-08-31T22:32:50.433Z,65387.91
2022-08-31T22:36:31.151Z,65387.91
2022-08-31T22:39:58.895Z,65387.91
2022-08-31T22:43:25.107Z,65387.91
2022-08-31T22:46:51.452Z,65387.91
2022-08-31T22:49:56.516Z,101677.84
2022-08-31T22:53:24.091Z,65387.91
2022-08-31T22:56:49.263Z,65387.91
2022-08-31T23:00:17.740Z,65387.91
2022-08-31T23:03:43.797Z,65387.91
2022-08-31T23:06:42.969Z,65387.91
2022-08-31T23:10:13.841Z,65387.91
2022-08-31T23:13:56.569Z,65387.91
2022-08-31T23:17:20.535Z,65387.91
2022-08-31T23:20:46.780Z,65387.91
2022-08-31T23:24:16.638Z,65387.91
2022-08-31T23:27:43.273Z,65387.91
2022-08-31T23:31:10.847Z,65387.91
2022-08-31T23:34:38.703Z,65387.91
2022-08-31T23:38:04.941Z,65387.91
2022-08-31T23:41:39.045Z,65387.91
2022-08-31T23:45:07.805Z,65387.91
2022-08-31T23:48:01.690Z,101677.84
2022-08-31T23:51:16.311Z,65387.91
2022-08-31T23:54:37.127Z,65387.91
2022-08-31T23:57:53.627Z,78536.66
